Terminal Aerodrome Forecast
Issued by NWS

Home | Current Version | Previous Version | Text Only | Print | Product List | Glossary On
Versions: 1 2 3 4 5 6 7 8 9 10 11 12 13 14 15
066
FTUS42 TJSJ 171138
TAFNCM
TAF
TNCM 171138Z 1712/1812 14008KT P6SM VCSH SCT018
      TEMPO 1712/1716 3SM SHRA BKN010
     FM171600 12012KT P6SM VCSH SCT020 BKN040
     FM180000 11008KT P6SM SCT025=

USA.gov is the U.S. government's official web portal to all federal, state and local government web resources and services.